createdAt,value
2023-08-11T04:31:41.526Z,100705.91
2023-08-11T04:35:45.029Z,100720.28
2023-08-11T04:39:48.201Z,100710.75
2023-08-11T04:43:51.451Z,100720.38
2023-08-11T04:47:54.428Z,100719.03
2023-08-11T04:51:58.140Z,100721.00
2023-08-11T04:56:01.007Z,100724.09
2023-08-11T05:00:07.665Z,100736.38
2023-08-11T05:04:10.637Z,100733.91
2023-08-11T05:08:14.398Z,100741.38
2023-08-11T05:12:17.921Z,100745.06
2023-08-11T05:16:21.396Z,100753.16
2023-08-11T05:20:24.635Z,100760.81
2023-08-11T05:24:27.968Z,100759.97
2023-08-11T05:28:30.909Z,100755.72
2023-08-11T05:32:34.224Z,100769.50
2023-08-11T05:36:37.498Z,100776.28
2023-08-11T05:40:42.260Z,100769.34
2023-08-11T05:44:45.073Z,100766.66
2023-08-11T05:48:49.614Z,100764.56
2023-08-11T05:52:52.342Z,100765.97
2023-08-11T05:56:55.781Z,100769.75
2023-08-11T06:00:58.666Z,100777.44
2023-08-11T06:05:02.040Z,100776.75
2023-08-11T06:09:07.540Z,100774.78
2023-08-11T06:13:10.909Z,100777.00
2023-08-11T06:17:14.062Z,100783.97
2023-08-11T06:21:18.806Z,100784.78
2023-08-11T06:25:21.699Z,100781.97
2023-08-11T06:29:24.850Z,100789.00
2023-08-11T06:33:27.661Z,100791.19
2023-08-11T06:37:31.246Z,100793.31
2023-08-11T06:41:34.101Z,100799.56
2023-08-11T06:45:37.383Z,100796.44
2023-08-11T06:49:40.209Z,100805.06
2023-08-11T06:53:43.457Z,100800.19
2023-08-11T06:57:46.271Z,100814.53
2023-08-11T07:01:49.445Z,100810.53
2023-08-11T07:05:53.040Z,100813.06
2023-08-11T07:09:56.321Z,100821.16
2023-08-11T07:13:59.041Z,100817.69
2023-08-11T07:18:02.291Z,100816.91
2023-08-11T07:22:06.210Z,100813.56
2023-08-11T07:26:09.327Z,100811.50
2023-08-11T07:30:12.616Z,100819.25
2023-08-11T07:34:15.832Z,100814.38
2023-08-11T07:38:19.734Z,100816.94
2023-08-11T07:42:22.901Z,100823.09
2023-08-11T07:46:25.761Z,100814.22
2023-08-11T07:50:29.010Z,100812.59
2023-08-11T07:54:32.159Z,100822.56
2023-08-11T07:58:35.390Z,100823.66
2023-08-11T08:02:38.257Z,100825.06
2023-08-11T08:06:46.980Z,100828.50
2023-08-11T08:10:49.935Z,100823.72
2023-08-11T08:14:52.963Z,100822.81
2023-08-11T08:18:55.937Z,100832.88
2023-08-11T08:22:59.305Z,100835.88
2023-08-11T08:27:02.040Z,100834.22
2023-08-11T08:31:06.762Z,100827.47
2023-08-11T08:35:12.548Z,100825.88
2023-08-11T08:39:15.691Z,100831.06
2023-08-11T08:43:18.568Z,100834.19
2023-08-11T08:47:23.546Z,100830.06
2023-08-11T08:51:26.599Z,100834.09
2023-08-11T08:55:29.729Z,100830.31
2023-08-11T08:59:32.397Z,100837.09
2023-08-11T09:03:38.514Z,100838.31
2023-08-11T09:07:41.595Z,100833.50
2023-08-11T09:11:44.884Z,100835.78
2023-08-11T09:15:47.894Z,100832.56
2023-08-11T09:19:54.460Z,100827.25
2023-08-11T09:23:57.801Z,100835.84
2023-08-11T09:28:01.078Z,100834.31
2023-08-11T09:32:05.635Z,100829.31
2023-08-11T09:36:09.367Z,100838.28
2023-08-11T09:40:12.908Z,100830.13
2023-08-11T09:44:20.312Z,100816.47
2023-08-11T09:48:23.569Z,100825.12
2023-08-11T09:52:28.231Z,100822.50
2023-08-11T09:56:31.305Z,100816.16
2023-08-11T10:00:35.102Z,100818.00
2023-08-11T10:04:43.118Z,100810.81
2023-08-11T10:08:46.993Z,100816.94
2023-08-11T10:12:58.197Z,100804.75
2023-08-11T10:17:00.984Z,100806.50
2023-08-11T10:21:04.628Z,100805.19
2023-08-11T10:25:09.664Z,100803.03
2023-08-11T10:29:13.316Z,100808.97
2023-08-11T10:33:16.138Z,100797.50
2023-08-11T10:37:19.194Z,100801.12
2023-08-11T10:41:22.817Z,100797.38
2023-08-11T10:45:28.023Z,100796.97
2023-08-11T10:49:34.315Z,100795.91
2023-08-11T10:53:41.090Z,100792.56
2023-08-11T10:57:43.915Z,100791.81
2023-08-11T11:01:48.909Z,100784.28
2023-08-11T11:05:51.880Z,100792.16
2023-08-11T11:09:55.019Z,100793.06
2023-08-11T11:13:58.522Z,100784.62
2023-08-11T11:18:02.479Z,100771.75
2023-08-11T11:22:08.290Z,100774.88
2023-08-11T11:26:11.394Z,100773.81
2023-08-11T11:30:14.926Z,100769.63
2023-08-11T11:34:21.749Z,100764.53
2023-08-11T11:38:25.761Z,100770.66
2023-08-11T11:42:32.642Z,100764.88
2023-08-11T11:46:37.021Z,100780.00
2023-08-11T11:50:41.125Z,100771.06
2023-08-11T11:54:44.940Z,100769.94
2023-08-11T11:58:49.809Z,100765.41
2023-08-11T12:02:53.484Z,100766.31
2023-08-11T12:06:57.163Z,100762.50
2023-08-11T12:11:01.643Z,100766.06
2023-08-11T12:15:07.133Z,100762.87
2023-08-11T12:19:11.108Z,100761.81
2023-08-11T12:23:14.290Z,100753.66
2023-08-11T12:27:17.229Z,100755.03
2023-08-11T12:31:20.442Z,100754.41
2023-08-11T12:35:23.373Z,100761.72
2023-08-11T12:39:26.610Z,100762.00
2023-08-11T12:43:29.433Z,100759.00
2023-08-11T12:47:32.593Z,100745.13
2023-08-11T12:51:35.310Z,100749.19
2023-08-11T12:55:40.982Z,100748.87
2023-08-11T12:59:43.756Z,100752.31
2023-08-11T13:03:47.140Z,100752.00
2023-08-11T13:07:49.926Z,100744.06
2023-08-11T13:11:53.092Z,100739.22
2023-08-11T13:15:55.783Z,100746.03
2023-08-11T13:20:02.389Z,100746.38
2023-08-11T13:24:06.140Z,100736.00
2023-08-11T13:28:09.295Z,100736.16
2023-08-11T13:32:12.313Z,100737.81
2023-08-11T13:36:17.086Z,100736.19
2023-08-11T13:40:20.358Z,100735.94
2023-08-11T13:44:23.439Z,100737.59
2023-08-11T13:48:27.620Z,100732.13
2023-08-11T13:52:32.067Z,100735.41
2023-08-11T13:56:35.051Z,100731.59
2023-08-11T14:00:38.142Z,100723.12
2023-08-11T14:04:41.386Z,100732.06
2023-08-11T14:08:44.686Z,100730.19
2023-08-11T14:12:47.955Z,100732.37
2023-08-11T14:16:50.700Z,100733.22
2023-08-11T14:20:53.823Z,100729.38
2023-08-11T14:24:57.898Z,100718.63
2023-08-11T14:29:02.641Z,100720.81
2023-08-11T14:33:05.521Z,100731.59
2023-08-11T14:37:08.936Z,100737.00
2023-08-11T14:41:11.762Z,100728.16
2023-08-11T14:45:16.039Z,100728.56
2023-08-11T14:49:19.217Z,100746.34
2023-08-11T14:53:24.311Z,100731.59
